Terminal Aerodrome Forecast
Issued by NWS Denver/Boulder, CO

Home | Current Version | Previous Version | Text Only | Print | Product List | Glossary On
Versions: 1 2 3 4 5 6 7 8 9 10 11 12 13 14 15 16 17 18 19 20 21 22 23 24 25 26 27 28 29 30 31 32 33 34 35 36 37 38 39 40 41 42 43 44 45 46 47 48 49 50
000
FTUS45 KBOU 211437 AAB
TAFDEN
TAF AMD
KDEN 211437Z 2115/2218 16005KT P6SM SCT012 OVC020
      TEMPO 2115/2117 5SM BR SCT008 BKN012
     FM211700 14006KT P6SM SCT012 BKN025
     FM211900 13009KT P6SM SCT025 BKN150
     FM212200 10011KT P6SM VCSH SCT025 BKN050 OVC100
      TEMPO 2123/2203 -SHRA BKN025
     FM220300 14012G20KT 5SM -SHRA BR SCT012 OVC025
      TEMPO 2203/2206 3SM -RA BR BKN012
     FM220600 11010KT 3SM -RA BKN009 OVC020
     FM221700 VRB05KT P6SM VCSH SCT020 BKN040 BKN080=

USA.gov is the U.S. government's official web portal to all federal, state and local government web resources and services.